Time;durP1;ratioP1;P1;durP2;ratioP2;P2;SDS_P1;SDS_P2;PMS_P1;PMS_P2;Temp;Humidity;BMP_temperature;BMP_pressure;BME280_temperature;BME280_humidity;BME280_pressure;Samples;Min_cycle;Max_cycle;Signal;HPM_P1;HPM_P2
2023/10/04 00:01:17;;;;;;;0.73;0.73;;;;;;;17.18;75.94;99996.38;5114583;28;20040;-64
2023/10/04 00:03:46;;;;;;;0.60;0.60;;;;;;;17.18;76.04;99986.06;5114779;28;20039;-64
2023/10/04 00:06:17;;;;;;;0.93;0.70;;;;;;;17.18;76.10;100004.09;5114997;28;20051;-64
2023/10/04 00:08:47;;;;;;;0.60;0.60;;;;;;;17.24;76.15;100009.16;5114807;28;20043;-64
2023/10/04 00:11:17;;;;;;;0.93;0.93;;;;;;;17.29;76.03;100017.63;5114213;28;20131;-64
2023/10/04 00:13:47;;;;;;;0.60;0.60;;;;;;;17.35;75.98;100017.47;5114584;28;20487;-64
2023/10/04 00:16:15;;;;;;;0.50;0.50;;;;;;;17.38;76.14;100035.50;5114255;28;20040;-64
2023/10/04 00:18:45;;;;;;;0.60;0.60;;;;;;;17.38;76.14;100038.06;5114520;28;20040;-64
2023/10/04 00:21:14;;;;;;;0.70;0.70;;;;;;;17.31;76.19;100070.06;5114250;28;20066;-64
2023/10/04 00:23:43;;;;;;;0.77;0.70;;;;;;;17.25;76.22;100085.66;5114527;28;20058;-64
2023/10/04 00:26:12;;;;;;;;;;;;;;;17.23;76.41;100077.09;5114536;28;20229;-64
2023/10/04 00:28:43;;;;;;;1.00;0.90;;;;;;;17.15;76.64;100073.84;5114418;28;20278;-64
2023/10/04 00:31:13;;;;;;;0.70;0.70;;;;;;;17.17;76.64;100084.97;5112871;28;20100;-64
2023/10/04 00:33:43;;;;;;;0.82;0.82;;;;;;;17.17;76.71;100097.03;5114385;28;20384;-64
2023/10/04 00:36:20;;;;;;;0.82;0.82;;;;;;;17.15;76.87;100109.97;5112971;28;20487;-64
2023/10/04 00:38:50;;;;;;;0.52;0.52;;;;;;;17.22;76.83;100105.53;5112474;28;20044;-64
2023/10/04 00:41:20;;;;;;;;;;;;;;;17.23;76.79;100113.22;5114199;28;20043;-64
2023/10/04 00:43:51;;;;;;;1.55;1.45;;;;;;;17.24;76.99;100121.81;5112765;28;20436;-64
2023/10/04 00:46:20;;;;;;;1.42;1.33;;;;;;;17.23;76.94;100113.22;5113088;28;20096;-64
2023/10/04 00:48:53;;;;;;;0.60;0.60;;;;;;;17.25;77.04;100119.19;5113805;28;20042;-64
2023/10/04 00:51:23;;;;;;;3.97;1.40;;;;;;;17.31;77.13;100121.66;5114131;28;20437;-64
2023/10/04 00:53:53;;;;;;;1.70;1.60;;;;;;;17.40;76.65;100136.94;5113858;28;20471;-64
2023/10/04 00:56:21;;;;;;;;;;;;;;;17.49;76.65;100147.97;5114215;28;20034;-64
2023/10/04 00:58:54;;;;;;;1.05;0.98;;;;;;;17.53;76.68;100165.09;5114017;28;19978;-64
2023/10/04 01:01:23;;;;;;;1.40;1.23;;;;;;;17.56;75.81;100172.78;5112563;28;20040;-64
2023/10/04 01:03:52;;;;;;;1.17;1.08;;;;;;;17.79;72.77;100186.06;5113876;28;20063;-64
2023/10/04 01:06:22;;;;;;;0.45;0.45;;;;;;;18.05;69.83;100186.31;5113744;28;20487;-64
2023/10/04 01:08:51;;;;;;;1.48;0.75;;;;;;;18.22;67.70;100207.44;5112482;28;20406;-65
2023/10/04 01:11:22;;;;;;;0.40;0.40;;;;;;;18.34;66.22;100219.22;5113752;28;20050;-65
2023/10/04 01:14:09;;;;;;;0.50;0.50;;;;;;;18.44;65.01;100218.13;5114030;28;20130;-65
2023/10/04 01:16:41;;;;;;;8.70;1.30;;;;;;;18.55;64.31;100222.19;5113727;28;20044;-65
2023/10/04 01:19:14;;;;;;;0.80;0.80;;;;;;;18.60;64.00;100224.66;5112675;28;20052;-64
2023/10/04 01:21:43;;;;;;;0.50;0.50;;;;;;;18.64;63.81;100237.47;5112724;28;20486;-65
2023/10/04 01:24:13;;;;;;;1.80;0.80;;;;;;;18.64;63.73;100242.63;5112418;28;20123;-64
2023/10/04 01:26:42;;;;;;;0.50;0.50;;;;;;;18.66;64.00;100246.06;5113688;28;20363;-65
2023/10/04 01:29:12;;;;;;;0.57;0.57;;;;;;;18.68;63.77;100246.88;5113543;28;20059;-65
2023/10/04 01:31:41;;;;;;;0.82;0.70;;;;;;;18.69;63.70;100258.88;5113759;28;20044;-65
2023/10/04 01:34:13;;;;;;;0.93;0.90;;;;;;;18.67;63.84;100242.56;5112387;28;20052;-65
2023/10/04 01:36:42;;;;;;;2.03;0.68;;;;;;;18.65;64.09;100252.09;5113788;28;20521;-64
2023/10/04 01:39:19;;;;;;;0.50;0.50;;;;;;;18.64;64.12;100244.41;5111942;28;20510;-65
2023/10/04 01:41:51;;;;;;;0.50;0.50;;;;;;;18.65;64.36;100254.69;5113834;28;20050;-65
2023/10/04 01:44:21;;;;;;;2.15;1.70;;;;;;;18.67;64.44;100250.31;5113375;28;20525;-65
2023/10/04 01:46:50;;;;;;;0.70;0.70;;;;;;;18.68;64.39;100244.28;5113337;28;20039;-64
2023/10/04 01:49:19;;;;;;;0.80;0.80;;;;;;;18.67;64.73;100257.22;5113966;28;20311;-64
2023/10/04 01:51:48;;;;;;;0.50;0.50;;;;;;;18.67;64.81;100252.91;5115770;28;20096;-65
2023/10/04 01:54:17;;;;;;;0.50;0.50;;;;;;;18.69;64.83;100245.97;5115813;28;20031;-64
2023/10/04 01:56:46;;;;;;;0.50;0.50;;;;;;;18.70;64.69;100252.84;5117211;28;20044;-64
2023/10/04 01:59:17;;;;;;;0.40;0.40;;;;;;;18.67;64.93;100245.16;5115782;28;20046;-64
2023/10/04 02:01:46;;;;;;;0.40;0.40;;;;;;;18.65;65.02;100253.84;5116877;28;20122;-64
2023/10/04 02:04:15;;;;;;;0.30;0.30;;;;;;;18.65;65.13;100252.09;5115712;28;20126;-64
2023/10/04 02:06:44;;;;;;;2.25;0.50;;;;;;;18.65;65.24;100249.50;5115588;28;20039;-65
2023/10/04 02:09:13;;;;;;;0.70;0.70;;;;;;;18.66;65.38;100250.38;5117058;28;20077;-65
2023/10/04 02:11:42;;;;;;;0.82;0.82;;;;;;;18.65;65.43;100249.50;5116844;28;20505;-64
2023/10/04 02:14:11;;;;;;;0.50;0.50;;;;;;;18.64;65.74;100252.16;5098410;28;20040;-64
2023/10/04 02:16:42;;;;;;;0.40;0.40;;;;;;;18.66;65.66;100250.38;5115721;28;20039;-64
2023/10/04 02:19:11;;;;;;;0.70;0.70;;;;;;;18.66;65.87;100246.06;5116829;28;20048;-67
2023/10/04 02:21:41;;;;;;;0.75;0.70;;;;;;;18.63;65.87;100266.81;5116492;28;20510;-64
2023/10/04 02:24:10;;;;;;;0.50;0.50;;;;;;;18.63;66.05;100263.38;5116457;28;20052;-65
2023/10/04 02:26:41;;;;;;;0.70;0.70;;;;;;;18.59;66.14;100259.16;5116676;28;20487;-65
2023/10/04 02:29:10;;;;;;;0.40;0.40;;;;;;;18.56;66.12;100260.09;5115512;28;20071;-65
2023/10/04 02:31:39;;;;;;;0.50;0.50;;;;;;;18.55;66.08;100263.56;5116547;28;20047;-64
2023/10/04 02:34:10;;;;;;;0.40;0.40;;;;;;;18.52;65.70;100263.63;5116160;28;20092;-64
2023/10/04 02:36:43;;;;;;;4.57;1.05;;;;;;;18.53;65.41;100265.31;5115086;28;20044;-65
2023/10/04 02:39:13;;;;;;;0.70;0.45;;;;;;;18.52;65.27;100267.97;5116158;28;20055;-64
2023/10/04 02:41:47;;;;;;;0.55;0.55;;;;;;;18.52;64.90;100271.38;5114996;28;20506;-65
2023/10/04 02:44:17;;;;;;;0.30;0.30;;;;;;;18.48;64.94;100272.34;5098048;28;20057;-64
2023/10/04 02:46:48;;;;;;;0.40;0.40;;;;;;;18.45;65.02;100277.53;5115114;28;20417;-64
2023/10/04 02:49:20;;;;;;;0.52;0.52;;;;;;;18.42;64.91;100272.47;5115980;28;20047;-65
2023/10/04 02:51:50;;;;;;;0.40;0.40;;;;;;;18.40;65.25;100284.56;5114765;28;20048;-64
2023/10/04 02:54:19;;;;;;;0.47;0.47;;;;;;;18.34;65.21;100283.84;5115690;28;20046;-66
2023/10/04 02:56:50;;;;;;;0.40;0.40;;;;;;;18.28;64.75;100274.50;5116164;28;20530;-64
2023/10/04 02:59:20;;;;;;;0.47;0.47;;;;;;;18.23;64.70;100276.34;5115794;28;20048;-65
2023/10/04 03:01:49;;;;;;;0.53;0.53;;;;;;;18.20;64.71;100286.75;5114493;28;20070;-65
2023/10/04 03:04:20;;;;;;;0.50;0.50;;;;;;;18.17;64.75;100276.47;5114428;28;20070;-63
2023/10/04 03:06:51;;;;;;;0.60;0.60;;;;;;;18.16;64.78;100281.69;5114419;28;20051;-64
2023/10/04 03:09:24;;;;;;;1.67;1.30;;;;;;;18.11;64.95;100281.78;5114724;28;20090;-64
2023/10/04 03:11:53;;;;;;;0.98;0.98;;;;;;;18.13;64.63;100286.91;5115578;28;20051;-65
2023/10/04 03:14:25;;;;;;;1.87;1.40;;;;;;;18.09;64.71;100293.88;5114175;28;20040;-65
2023/10/04 03:16:54;;;;;;;1.15;0.82;;;;;;;18.05;64.95;100295.69;5114291;28;20276;-64
2023/10/04 03:19:25;;;;;;;0.60;0.60;;;;;;;17.95;65.00;100285.56;5114216;28;20059;-63
2023/10/04 03:21:55;;;;;;;0.77;0.75;;;;;;;17.92;65.18;100295.97;5114526;28;20055;-66
2023/10/04 03:24:25;;;;;;;0.63;0.63;;;;;;;17.88;64.86;100305.50;5113970;28;20047;-64
2023/10/04 03:26:54;;;;;;;0.60;0.60;;;;;;;17.84;64.73;100297.84;5115545;28;20499;-64
2023/10/04 03:29:23;;;;;;;0.65;0.65;;;;;;;17.78;64.44;100298.00;5114050;28;20067;-64
2023/10/04 03:31:53;;;;;;;0.68;0.60;;;;;;;17.72;64.20;100303.25;5113903;28;20047;-64
2023/10/04 03:34:23;;;;;;;0.40;0.40;;;;;;;17.65;63.54;100312.00;5114110;28;20486;-65
2023/10/04 03:36:54;;;;;;;0.60;0.60;;;;;;;17.53;62.82;100317.41;5113883;28;20135;-64
2023/10/04 03:39:28;;;;;;;0.75;0.75;;;;;;;17.51;62.30;100319.13;5113837;28;20052;-64
2023/10/04 03:42:00;;;;;;;0.50;0.50;;;;;;;17.46;61.70;100324.38;5113704;28;20040;-64
2023/10/04 03:44:29;;;;;;;0.65;0.60;;;;;;;17.40;61.75;100345.97;5114883;28;20521;-63
2023/10/04 03:47:00;;;;;;;0.55;0.55;;;;;;;17.35;61.38;100352.94;5114847;28;20047;-64
2023/10/04 03:49:29;;;;;;;0.50;0.50;;;;;;;17.34;61.17;100359.00;5113884;28;20092;-64
2023/10/04 03:52:00;;;;;;;0.70;0.70;;;;;;;17.29;60.94;100363.41;5096543;28;20142;-64
2023/10/04 03:54:30;;;;;;;0.75;0.75;;;;;;;17.25;60.90;100359.16;5114636;28;20284;-64
2023/10/04 03:57:04;;;;;;;0.50;0.50;;;;;;;17.22;60.77;100374.69;5113413;28;20047;-64
2023/10/04 03:59:36;;;;;;;0.60;0.60;;;;;;;17.15;61.05;100388.59;5113782;28;20058;-64
2023/10/04 04:02:09;;;;;;;0.57;0.57;;;;;;;17.09;61.21;100388.66;5113305;28;20157;-64
2023/10/04 04:04:38;;;;;;;0.40;0.40;;;;;;;17.03;61.29;100403.38;5115071;28;20070;-64
2023/10/04 04:07:09;;;;;;;;;;;;;;;17.00;61.01;100404.28;5114786;28;20052;-64
2023/10/04 04:09:37;;;;;;;0.60;0.60;;;;;;;16.94;60.86;100412.09;5114452;28;19919;-64
2023/10/04 04:12:06;;;;;;;0.40;0.40;;;;;;;16.91;60.79;100419.91;5112827;28;20043;-65
2023/10/04 04:14:35;;;;;;;0.80;0.52;;;;;;;16.84;60.76;100423.44;5114637;28;20141;-63
2023/10/04 04:17:05;;;;;;;0.30;0.30;;;;;;;16.81;60.55;100420.91;5113396;28;20062;-64
2023/10/04 04:19:34;;;;;;;0.40;0.40;;;;;;;16.78;60.20;100415.78;5113092;28;20050;-63
2023/10/04 04:22:03;;;;;;;0.40;0.40;;;;;;;16.72;60.18;100414.13;5114215;28;20047;-64
2023/10/04 04:24:34;;;;;;;0.55;0.55;;;;;;;16.67;60.62;100415.09;5114173;28;20047;-64
2023/10/04 04:27:03;;;;;;;0.40;0.40;;;;;;;16.64;60.42;100423.72;5113288;28;20117;-63
2023/10/04 04:29:33;;;;;;;0.50;0.50;;;;;;;16.62;60.45;100427.19;5112922;28;20134;-64
2023/10/04 04:32:05;;;;;;;1.00;0.70;;;;;;;16.65;60.57;100427.16;5114054;28;20078;-64
2023/10/04 04:34:35;;;;;;;0.60;0.60;;;;;;;16.66;60.17;100440.00;5112923;28;20483;-64
2023/10/04 04:37:04;;;;;;;0.50;0.50;;;;;;;16.64;60.46;100440.91;5112683;28;20039;-64
2023/10/04 04:39:40;;;;;;;0.40;0.40;;;;;;;16.53;60.73;100442.78;5112816;28;20157;-64
2023/10/04 04:42:11;;;;;;;0.40;0.40;;;;;;;16.45;61.38;100444.56;5112806;28;20082;-64
2023/10/04 04:44:44;;;;;;;0.40;0.40;;;;;;;16.36;61.42;100440.38;5114023;28;20448;-65
2023/10/04 04:47:13;;;;;;;0.47;0.47;;;;;;;16.33;61.68;100434.41;5113166;28;20047;-64
2023/10/04 04:49:42;;;;;;;0.50;0.50;;;;;;;16.26;62.24;100438.78;5112635;28;20036;-64
2023/10/04 04:52:11;;;;;;;0.55;0.55;;;;;;;16.21;62.25;100444.84;5113938;28;20079;-65
2023/10/04 04:54:42;;;;;;;0.57;0.57;;;;;;;16.18;62.46;100435.41;5112496;28;20047;-64
2023/10/04 04:57:11;;;;;;;1.02;0.73;;;;;;;16.13;62.80;100433.75;5112580;28;20134;-65
2023/10/04 04:59:42;;;;;;;1.10;0.85;;;;;;;16.09;63.00;100431.25;5113781;28;20073;-64
2023/10/04 05:02:11;;;;;;;0.40;0.40;;;;;;;16.03;63.00;100423.56;5112993;28;20040;-65
2023/10/04 05:04:43;;;;;;;0.85;0.82;;;;;;;16.04;63.21;100412.41;5112553;28;20093;-65
2023/10/04 05:07:12;;;;;;;0.73;0.73;;;;;;;16.01;62.80;100414.16;5112736;28;20518;-65
2023/10/04 05:09:43;;;;;;;0.30;0.30;;;;;;;16.01;62.89;100417.59;5112823;28;20130;-65
2023/10/04 05:12:12;;;;;;;0.40;0.40;;;;;;;16.01;63.16;100411.56;5113768;28;20058;-64
2023/10/04 05:14:41;;;;;;;0.40;0.40;;;;;;;16.01;62.95;100412.44;5113549;28;20124;-64
2023/10/04 05:17:10;;;;;;;0.43;0.43;;;;;;;16.01;63.06;100427.88;5113909;28;20402;-65
2023/10/04 05:19:39;;;;;;;1.48;0.98;;;;;;;16.02;62.81;100434.75;5113585;28;20086;-64
2023/10/04 05:22:08;;;;;;;0.55;0.55;;;;;;;16.05;62.71;100437.28;5113920;28;20395;-64
2023/10/04 05:24:37;;;;;;;0.50;0.50;;;;;;;16.00;62.69;100446.75;5116531;28;20051;-64
2023/10/04 05:27:08;;;;;;;0.60;0.60;;;;;;;15.99;62.52;100460.53;5117534;28;20048;-64
2023/10/04 05:29:36;;;;;;;0.70;0.70;;;;;;;15.95;62.50;100469.16;5117754;28;20046;-65
2023/10/04 05:32:05;;;;;;;0.40;0.40;;;;;;;15.95;62.45;100473.44;5117840;28;20035;-64
2023/10/04 05:34:34;;;;;;;0.77;0.73;;;;;;;15.96;62.38;100467.41;5117383;28;20039;-65
2023/10/04 05:37:03;;;;;;;1.87;0.93;;;;;;;15.92;62.61;100474.34;5117424;28;20040;-64
2023/10/04 05:39:33;;;;;;;0.52;0.52;;;;;;;15.88;62.25;100482.94;5117427;28;20558;-65
2023/10/04 05:42:01;;;;;;;;;;;;;;;15.85;62.30;100482.97;5117623;28;20047;-65
2023/10/04 05:44:32;;;;;;;0.30;0.30;;;;;;;15.83;62.30;100492.44;5117494;28;20464;-64
2023/10/04 05:47:01;;;;;;;0.82;0.80;;;;;;;15.83;62.68;100499.31;5117098;28;20501;-65
2023/10/04 05:49:30;;;;;;;0.50;0.50;;;;;;;15.81;62.51;100491.59;5117375;28;20036;-64
2023/10/04 05:52:00;;;;;;;0.70;0.70;;;;;;;15.80;62.28;100492.47;5117101;28;20059;-64
2023/10/04 05:54:30;;;;;;;0.43;0.43;;;;;;;15.83;62.56;100494.16;5116724;28;20043;-64
2023/10/04 05:57:01;;;;;;;0.43;0.43;;;;;;;15.85;62.25;100498.44;5117086;28;20048;-64
2023/10/04 05:59:34;;;;;;;0.40;0.40;;;;;;;15.80;61.97;100515.63;5116818;28;20052;-66
2023/10/04 06:02:04;;;;;;;0.50;0.50;;;;;;;15.76;62.10;100513.97;5117191;28;20044;-67
2023/10/04 06:04:33;;;;;;;0.50;0.50;;;;;;;15.73;62.09;100532.00;5116796;28;20051;-66
2023/10/04 06:07:02;;;;;;;0.50;0.50;;;;;;;15.76;62.12;100547.44;5117063;28;20035;-66
2023/10/04 06:09:32;;;;;;;0.93;0.93;;;;;;;15.81;62.27;100552.53;5116364;28;20043;-66
2023/10/04 06:12:03;;;;;;;0.45;0.45;;;;;;;15.82;62.25;100557.66;5116734;27;20298;-65
2023/10/04 06:14:33;;;;;;;0.50;0.50;;;;;;;15.80;62.07;100556.81;5116543;28;20169;-66
2023/10/04 06:17:04;;;;;;;0.40;0.40;;;;;;;15.79;62.47;100560.25;5116607;28;20101;-65
2023/10/04 06:19:33;;;;;;;0.70;0.70;;;;;;;15.73;62.07;100560.31;5116462;28;20052;-66
2023/10/04 06:22:03;;;;;;;0.43;0.43;;;;;;;15.71;62.29;100562.06;5116801;28;20043;-65
2023/10/04 06:24:32;;;;;;;0.40;0.40;;;;;;;15.69;62.48;100574.06;5116987;28;20043;-66
2023/10/04 06:27:01;;;;;;;0.30;0.30;;;;;;;15.65;62.08;100562.09;5116351;28;20548;-67
2023/10/04 06:29:30;;;;;;;1.17;0.88;;;;;;;15.64;62.27;100568.13;5116674;28;20100;-64
2023/10/04 06:32:00;;;;;;;0.40;0.40;;;;;;;15.72;62.32;100562.88;5116255;28;20051;-64
2023/10/04 06:34:29;;;;;;;0.60;0.60;;;;;;;15.79;62.04;100572.25;5116013;28;20315;-66
2023/10/04 06:36:58;;;;;;;0.97;0.80;;;;;;;15.84;61.75;100568.78;5116028;28;20547;-65
2023/10/04 06:39:27;;;;;;;0.65;0.55;;;;;;;15.96;61.63;100579.00;5110022;28;20281;-67
2023/10/04 06:41:56;;;;;;;0.50;0.50;;;;;;;16.12;61.25;100578.88;5116134;28;20122;-66
2023/10/04 06:44:27;;;;;;;0.50;0.50;;;;;;;16.27;60.93;100578.75;5115990;28;20043;-67
2023/10/04 06:46:56;;;;;;;0.50;0.50;;;;;;;16.33;60.67;100576.09;5116316;28;20554;-67
2023/10/04 06:49:26;;;;;;;0.50;0.50;;;;;;;16.41;60.02;100582.03;5113742;28;20047;-67
2023/10/04 06:51:55;;;;;;;0.50;0.50;;;;;;;16.54;59.78;100581.94;5116262;28;20272;-67
2023/10/04 06:54:24;;;;;;;10.77;5.20;;;;;;;16.65;59.33;100576.66;5112256;28;20051;-67
2023/10/04 06:56:53;;;;;;;0.90;0.90;;;;;;;16.73;58.65;100564.53;5111653;28;20031;-65
2023/10/04 06:59:22;;;;;;;0.40;0.40;;;;;;;16.79;58.33;100564.47;5112826;28;20521;-66
2023/10/04 07:01:52;;;;;;;0.40;0.40;;;;;;;16.93;58.37;100566.88;5115680;28;20039;-67
2023/10/04 07:04:20;;;;;;;0.47;0.47;;;;;;;17.01;57.75;100575.38;5114845;28;20510;-65
2023/10/04 07:06:50;;;;;;;0.90;0.70;;;;;;;17.12;57.69;100566.63;5113681;28;20044;-65
2023/10/04 07:09:20;;;;;;;0.40;0.40;;;;;;;17.24;57.52;100579.38;5113189;28;20044;-67
2023/10/04 07:11:49;;;;;;;0.50;0.50;;;;;;;17.31;56.74;100575.81;5115815;28;20043;-65
2023/10/04 07:14:18;;;;;;;0.50;0.50;;;;;;;17.42;56.42;100581.69;5115346;28;20448;-65
2023/10/04 07:16:47;;;;;;;0.53;0.53;;;;;;;17.47;56.38;100588.53;5115553;28;20051;-66
2023/10/04 07:19:16;;;;;;;0.50;0.50;;;;;;;17.45;55.68;100583.38;5114283;28;20044;-65
2023/10/04 07:21:45;;;;;;;0.60;0.60;;;;;;;17.49;55.64;100584.19;5115265;27;20135;-66
2023/10/04 07:24:15;;;;;;;1.35;1.25;;;;;;;17.42;55.82;100579.09;5115540;28;20035;-67
2023/10/04 07:26:45;;;;;;;0.43;0.43;;;;;;;17.41;55.78;100580.00;5115554;28;20062;-66
2023/10/04 07:29:14;;;;;;;;;;;;;;;17.42;55.65;100584.25;5114504;28;20056;-64
2023/10/04 07:31:42;;;;;;;0.70;0.70;;;;;;;17.41;55.56;100577.41;5115305;28;20424;-63
2023/10/04 07:34:11;;;;;;;1.00;0.80;;;;;;;17.50;55.39;100575.56;5115013;28;20036;-65
2023/10/04 07:36:42;;;;;;;2.70;0.75;;;;;;;17.63;55.32;100583.16;5114949;28;20047;-65
2023/10/04 07:39:15;;;;;;;0.95;0.82;;;;;;;17.73;55.02;100583.88;5112603;28;20108;-64
2023/10/04 07:41:46;;;;;;;2.70;0.95;;;;;;;17.74;54.84;100590.72;5114924;28;20039;-66
2023/10/04 07:44:15;;;;;;;0.50;0.50;;;;;;;17.71;54.59;100585.59;5114983;27;20130;-64
2023/10/04 07:46:44;;;;;;;0.47;0.47;;;;;;;17.78;54.67;100592.41;5112737;28;20124;-65
2023/10/04 07:49:13;;;;;;;0.40;0.40;;;;;;;17.85;54.52;100594.84;5113808;28;20124;-66
2023/10/04 07:51:42;;;;;;;2.30;1.15;;;;;;;17.79;54.11;100594.09;5114677;28;20051;-68
2023/10/04 07:54:11;;;;;;;0.50;0.50;;;;;;;17.83;54.23;100595.72;5114997;28;20102;-65
2023/10/04 07:56:40;;;;;;;0.40;0.40;;;;;;;17.92;54.17;100595.59;5113384;28;20502;-66
2023/10/04 07:59:10;;;;;;;9.03;1.50;;;;;;;18.07;54.36;100603.94;5114846;28;20062;-65
2023/10/04 08:01:39;;;;;;;0.50;0.50;;;;;;;18.14;54.19;100612.44;5113374;28;20088;-67
2023/10/04 08:04:08;;;;;;;0.50;0.50;;;;;;;18.20;53.88;100607.19;5114278;28;20039;-65
2023/10/04 08:06:37;;;;;;;0.70;0.70;;;;;;;18.26;54.05;100621.75;5114399;28;20084;-66
2023/10/04 08:09:06;;;;;;;0.40;0.40;;;;;;;18.32;53.78;100601.81;5114953;28;20448;-66
2023/10/04 08:11:35;;;;;;;;;;;;;;;18.38;53.36;100601.69;5114876;28;20047;-66
2023/10/04 08:14:07;;;;;;;0.50;0.50;;;;;;;18.44;53.18;100591.25;5112912;28;20352;-65
2023/10/04 08:16:38;;;;;;;0.40;0.40;;;;;;;18.48;53.01;100595.50;5114304;28;20040;-66
2023/10/04 08:19:07;;;;;;;0.50;0.50;;;;;;;18.54;52.65;100592.84;5113510;28;20562;-66
2023/10/04 08:21:37;;;;;;;5.85;1.00;;;;;;;18.60;52.56;100597.88;5114135;28;20040;-67
2023/10/04 08:24:11;;;;;;;0.57;0.57;;;;;;;18.62;52.40;100608.19;5113207;28;20050;-67
2023/10/04 08:26:40;;;;;;;0.70;0.70;;;;;;;18.61;52.17;100603.91;5114430;28;20047;-67
2023/10/04 08:29:09;;;;;;;0.50;0.50;;;;;;;18.64;52.34;100603.84;5112778;28;20031;-66
2023/10/04 08:31:39;;;;;;;0.35;0.35;;;;;;;18.69;52.15;100608.03;5113981;28;20280;-66
2023/10/04 08:34:08;;;;;;;0.43;0.43;;;;;;;18.76;51.48;100613.13;5114079;28;20118;-66
2023/10/04 08:36:39;;;;;;;0.70;0.70;;;;;;;18.89;51.42;100614.56;5113542;28;20040;-66
2023/10/04 08:39:10;;;;;;;0.50;0.50;;;;;;;18.96;51.08;100611.81;5112634;28;20495;-67
2023/10/04 08:41:40;;;;;;;0.43;0.43;;;;;;;19.07;50.86;100614.22;5106306;28;20066;-66
2023/10/04 08:44:09;;;;;;;0.40;0.40;;;;;;;19.16;50.87;100614.03;5114120;28;20039;-67
2023/10/04 08:46:40;;;;;;;1.25;1.15;;;;;;;19.25;50.70;100626.75;5113055;28;20116;-66
2023/10/04 08:49:11;;;;;;;0.50;0.50;;;;;;;19.31;50.65;100626.66;5112728;28;20439;-68
2023/10/04 08:51:51;;;;;;;0.60;0.60;;;;;;;19.29;50.23;100628.44;5109764;28;20036;-67
2023/10/04 08:54:24;;;;;;;0.70;0.70;;;;;;;19.36;50.30;100623.09;5113770;28;20559;-67
2023/10/04 08:57:01;;;;;;;0.50;0.50;;;;;;;19.53;50.35;100630.50;5113441;28;20039;-67
2023/10/04 08:59:33;;;;;;;0.70;0.70;;;;;;;19.53;49.87;100622.72;5115774;28;20040;-67
2023/10/04 09:02:07;;;;;;;0.50;0.50;;;;;;;19.55;49.38;100633.94;5118056;28;20050;-65
2023/10/04 09:04:39;;;;;;;0.70;0.70;;;;;;;19.58;48.82;100633.84;5117954;27;20052;-66
2023/10/04 09:07:10;;;;;;;0.57;0.55;;;;;;;19.71;49.02;100630.09;5116857;28;20108;-66
2023/10/04 09:09:39;;;;;;;0.50;0.50;;;;;;;19.84;48.91;100635.84;5118111;28;20077;-66
2023/10/04 09:12:12;;;;;;;1.25;1.15;;;;;;;19.96;48.56;100628.63;5118156;28;20231;-66
2023/10/04 09:14:41;;;;;;;0.57;0.57;;;;;;;20.05;48.22;100625.84;5118076;28;20121;-66
2023/10/04 09:17:14;;;;;;;0.47;0.47;;;;;;;20.05;47.68;100633.63;5116228;28;20299;-67
2023/10/04 09:19:43;;;;;;;0.75;0.75;;;;;;;19.92;47.24;100639.97;5116802;28;20047;-67
2023/10/04 09:22:17;;;;;;;0.43;0.43;;;;;;;19.90;46.96;100641.75;5117949;28;20051;-66
2023/10/04 09:24:57;;;;;;;1.75;0.73;;;;;;;20.01;46.75;100634.56;5117614;28;20047;-66
2023/10/04 09:27:26;;;;;;;0.40;0.40;;;;;;;20.13;46.33;100635.16;5114825;28;20054;-67
2023/10/04 09:29:55;;;;;;;0.50;0.50;;;;;;;20.08;46.25;100634.44;5116401;28;20036;-67
2023/10/04 09:32:40;;;;;;;0.40;0.40;;;;;;;20.08;46.10;100649.97;5117255;28;20097;-68
2023/10/04 09:35:10;;;;;;;0.40;0.40;;;;;;;20.33;46.76;100645.91;5117372;28;20104;-66
2023/10/04 09:37:44;;;;;;;0.68;0.68;;;;;;;20.26;46.03;100649.56;5116133;28;20093;-66
2023/10/04 09:40:16;;;;;;;0.40;0.40;;;;;;;20.39;45.82;100653.56;5117325;28;20052;-67
2023/10/04 09:42:52;;;;;;;0.60;0.60;;;;;;;20.49;44.94;100652.44;5117256;28;20044;-66
2023/10/04 09:45:24;;;;;;;0.50;0.50;;;;;;;20.58;44.12;100657.38;5116393;28;20044;-67
2023/10/04 09:47:55;;;;;;;0.50;0.50;;;;;;;20.74;43.96;100661.28;5113782;28;20410;-67
2023/10/04 09:50:25;;;;;;;1.95;1.38;;;;;;;20.90;43.91;100659.97;5113117;28;20047;-70
2023/10/04 09:52:54;;;;;;;0.50;0.50;;;;;;;20.99;43.72;100661.47;5112624;28;20059;-67
2023/10/04 09:55:26;;;;;;;0.40;0.40;;;;;;;21.00;43.17;100663.16;5117352;28;20061;-66
2023/10/04 09:57:56;;;;;;;1.00;0.90;;;;;;;21.03;42.79;100661.34;5114979;27;20054;-66
2023/10/04 10:00:29;;;;;;;0.60;0.60;;;;;;;21.11;42.76;100654.22;5116835;28;20051;-68
2023/10/04 10:03:03;;;;;;;0.40;0.40;;;;;;;21.33;43.22;100654.47;5116041;28;20126;-68
2023/10/04 10:05:32;;;;;;;0.50;0.50;;;;;;;21.50;43.08;100640.97;5116848;28;20051;-66
2023/10/04 10:08:06;;;;;;;0.35;0.35;;;;;;;21.33;42.16;100644.91;5116836;28;20040;-67
2023/10/04 10:10:40;;;;;;;0.45;0.45;;;;;;;21.31;41.96;100657.09;5116132;28;20403;-67
2023/10/04 10:13:10;;;;;;;1.13;1.02;;;;;;;21.32;42.04;100648.41;5115212;28;20031;-67
2023/10/04 10:15:39;;;;;;;0.40;0.40;;;;;;;21.48;42.64;100647.94;5117097;27;20119;-68
2023/10/04 10:18:12;;;;;;;0.70;0.70;;;;;;;21.62;42.56;100645.81;5115171;27;20039;-68
2023/10/04 10:20:42;;;;;;;2.28;1.40;;;;;;;21.48;42.52;100654.00;5116523;28;20052;-67
2023/10/04 10:23:13;;;;;;;;;;;;;;;21.26;42.19;100648.56;5117223;28;20067;-67
2023/10/04 10:26:13;;;;;;;0.40;0.40;;;;;;;21.06;43.22;100640.53;5116791;28;19919;-67
2023/10/04 10:28:42;;;;;;;0.40;0.40;;;;;;;20.83;42.96;100642.84;5114609;28;20051;-67
2023/10/04 10:31:20;;;;;;;0.60;0.60;;;;;;;20.85;42.39;100648.03;5116271;27;20048;-67
2023/10/04 10:33:51;;;;;;;0.38;0.38;;;;;;;21.04;41.90;100646.63;5116668;28;20044;-68
2023/10/04 10:36:22;;;;;;;0.50;0.50;;;;;;;21.44;41.42;100642.00;5116571;28;20039;-68
2023/10/04 10:38:52;;;;;;;0.40;0.40;;;;;;;21.78;41.03;100636.63;5114934;28;20441;-68
2023/10/04 10:41:43;;;;;;;0.70;0.70;;;;;;;21.92;40.26;100631.88;5116040;28;20046;-67
2023/10/04 10:44:19;;;;;;;0.40;0.40;;;;;;;21.90;40.48;100626.75;5116148;28;20089;-68
2023/10/04 10:46:57;;;;;;;0.77;0.77;;;;;;;21.79;40.85;100622.72;5115040;28;20126;-69
2023/10/04 10:49:40;;;;;;;0.40;0.40;;;;;;;21.71;40.22;100624.72;5095480;28;20046;-67
2023/10/04 10:52:10;;;;;;;0.40;0.40;;;;;;;21.75;39.86;100615.94;5095552;28;20113;-68
2023/10/04 10:54:40;;;;;;;0.40;0.40;;;;;;;21.82;39.50;100612.25;5095928;28;20082;-68
2023/10/04 10:57:09;;;;;;;0.40;0.40;;;;;;;21.98;39.06;100610.88;5111679;28;20142;-68
2023/10/04 10:59:38;;;;;;;0.40;0.40;;;;;;;22.12;38.50;100607.84;5116157;28;20050;-70
2023/10/04 11:02:07;;;;;;;1.15;1.02;;;;;;;22.12;38.26;100603.50;5115659;28;20047;-68
2023/10/04 11:04:36;;;;;;;0.50;0.50;;;;;;;22.17;38.64;100604.16;5115972;28;20479;-68
2023/10/04 11:07:07;;;;;;;0.55;0.55;;;;;;;22.16;38.30;100602.47;5114804;28;20051;-69
2023/10/04 11:09:39;;;;;;;0.85;0.80;;;;;;;22.15;38.21;100592.16;5115562;28;20063;-68
2023/10/04 11:12:18;;;;;;;1.05;0.85;;;;;;;22.17;38.09;100593.75;5115566;28;20047;-70
2023/10/04 11:14:47;;;;;;;0.70;0.70;;;;;;;22.38;38.04;100585.25;5115874;28;20458;-66
2023/10/04 11:17:16;;;;;;;0.50;0.50;;;;;;;22.43;37.70;100585.09;5114532;28;20040;-68
2023/10/04 11:19:45;;;;;;;0.40;0.40;;;;;;;22.51;38.14;100586.50;5115472;27;20329;-66
2023/10/04 11:22:16;;;;;;;0.60;0.60;;;;;;;22.55;38.00;100585.53;5115043;28;20054;-68
2023/10/04 11:24:45;;;;;;;0.40;0.40;;;;;;;22.48;37.81;100583.19;5114142;28;20048;-68
2023/10/04 11:27:22;;;;;;;0.47;0.47;;;;;;;22.58;37.76;100585.38;5115820;28;20475;-68
2023/10/04 11:29:52;;;;;;;0.40;0.40;;;;;;;22.64;37.32;100568.75;5113451;28;20127;-68
2023/10/04 11:32:22;;;;;;;0.40;0.40;;;;;;;22.79;37.05;100580.38;5114489;28;20047;-69
2023/10/04 11:34:52;;;;;;;1.02;0.93;;;;;;;23.17;38.68;100565.03;5115103;28;20058;-69
2023/10/04 11:37:27;;;;;;;0.60;0.60;;;;;;;23.57;39.83;100569.53;5112863;28;20047;-69
2023/10/04 11:39:57;;;;;;;0.40;0.40;;;;;;;23.65;39.38;100561.44;5115034;28;20052;-69
2023/10/04 11:42:26;;;;;;;0.40;0.40;;;;;;;23.60;39.10;100565.97;5115216;28;20134;-68